Time;durP1;ratioP1;P1;durP2;ratioP2;P2;SDS_P1;SDS_P2;PMS_P1;PMS_P2;Temp;Humidity;BMP_temperature;BMP_pressure;BME280_temperature;BME280_humidity;BME280_pressure;Samples;Min_cycle;Max_cycle;Signal;HPM_P1;HPM_P2
2022/01/03 00:00:19;;;;;;;44.45;27.95;;;;;;;;;;5030458;28;20375;-47
2022/01/03 00:02:46;;;;;;;52.58;30.45;;;;;;;;;;5031524;28;20064;-49
2022/01/03 00:05:11;;;;;;;53.97;28.25;;;;;;;;;;5027276;28;20021;-50
2022/01/03 00:07:40;;;;;;;46.03;27.58;;;;;;;;;;5027009;28;20042;-54
2022/01/03 00:10:07;;;;;;;47.50;26.98;;;;;;;;;;5025687;28;20108;-49
2022/01/03 00:12:33;;;;;;;47.00;29.08;;;;;;;;;;5032939;28;20036;-54
2022/01/03 00:15:00;;;;;;;40.22;25.13;;;;;;;;;;5040252;28;20030;-53
2022/01/03 00:17:26;;;;;;;41.72;25.95;;;;;;;;;;5036789;28;20040;-54
2022/01/03 00:19:52;;;;;;;45.85;26.55;;;;;;;;;;5031209;28;20049;-51
2022/01/03 00:22:22;;;;;;;49.83;26.80;;;;;;;;;;5024463;28;20120;-54
2022/01/03 00:25:16;;;;;;;44.50;26.77;;;;;;;;;;5031949;28;20051;-48
2022/01/03 00:27:45;;;;;;;43.22;26.15;;;;;;;;;;5030704;28;20172;-55
2022/01/03 00:30:11;;;;;;;43.13;26.55;;;;;;;;;;5033266;28;20033;-54
2022/01/03 00:32:38;;;;;;;43.40;25.83;;;;;;;;;;5032693;28;20116;-49
2022/01/03 00:35:05;;;;;;;49.08;26.77;;;;;;;;;;5025111;28;20444;-54
2022/01/03 00:37:34;;;;;;;40.53;26.92;;;;;;;;;;5019042;28;20112;-50
2022/01/03 00:40:01;;;;;;;38.90;25.45;;;;;;;;;;5029112;28;20064;-54
2022/01/03 00:42:26;;;;;;;41.38;25.92;;;;;;;;;;5034003;28;20041;-54
2022/01/03 00:44:53;;;;;;;35.17;24.45;;;;;;;;;;5032090;28;20425;-55
2022/01/03 00:47:19;;;;;;;40.22;25.63;;;;;;;;;;5030587;28;20120;-55
2022/01/03 00:49:45;;;;;;;34.35;24.15;;;;;;;;;;5024551;28;20163;-51
2022/01/03 00:52:12;;;;;;;38.92;24.98;;;;;;;;;;5035336;28;20486;-55
2022/01/03 00:54:38;;;;;;;36.30;24.27;;;;;;;;;;5025341;28;20036;-53
2022/01/03 00:57:12;;;;;;;42.50;25.50;;;;;;;;;;5030101;28;20123;-53
2022/01/03 00:59:44;;;;;;;40.42;26.17;;;;;;;;;;5032830;28;20030;-53
2022/01/03 01:02:11;;;;;;;41.08;25.88;;;;;;;;;;5027514;28;20377;-52
2022/01/03 01:04:37;;;;;;;44.80;25.95;;;;;;;;;;5025100;28;20033;-50
2022/01/03 01:07:05;;;;;;;39.42;25.85;;;;;;;;;;5030504;28;20043;-55
2022/01/03 01:09:34;;;;;;;40.10;25.42;;;;;;;;;;5027157;28;20033;-54
2022/01/03 01:12:00;;;;;;;44.95;27.42;;;;;;;;;;5034607;28;20083;-51
2022/01/03 01:14:27;;;;;;;45.38;28.73;;;;;;;;;;5031598;28;20047;-54
2022/01/03 01:16:54;;;;;;;41.40;26.55;;;;;;;;;;5027395;28;20086;-52
2022/01/03 01:19:21;;;;;;;45.38;28.20;;;;;;;;;;5029120;28;20052;-55
2022/01/03 01:21:49;;;;;;;45.65;28.65;;;;;;;;;;5034179;28;20099;-51
2022/01/03 01:24:17;;;;;;;42.72;27.15;;;;;;;;;;5030565;28;20565;-53
2022/01/03 01:29:27;;;;;;;48.05;27.80;;;;;;;;;;5022161;28;20372;-55
2022/01/03 01:31:57;;;;;;;47.10;28.10;;;;;;;;;;5030194;28;20033;-55
2022/01/03 01:34:28;;;;;;;43.90;27.38;;;;;;;;;;5032304;28;20037;-55
2022/01/03 01:36:57;;;;;;;49.40;29.77;;;;;;;;;;5030263;28;20537;-54
2022/01/03 01:39:25;;;;;;;43.97;27.60;;;;;;;;;;5025077;28;20041;-51
2022/01/03 01:41:55;;;;;;;41.75;27.20;;;;;;;;;;5024741;28;20034;-56
2022/01/03 01:44:22;;;;;;;43.95;27.65;;;;;;;;;;5026634;28;20120;-54
2022/01/03 01:46:53;;;;;;;49.05;28.45;;;;;;;;;;5021919;28;20034;-54
2022/01/03 01:49:21;;;;;;;44.75;27.38;;;;;;;;;;5033573;28;20033;-53
2022/01/03 01:51:55;;;;;;;45.28;27.38;;;;;;;;;;5031945;28;20030;-55
2022/01/03 01:54:34;;;;;;;43.83;27.25;;;;;;;;;;5026304;28;20032;-55
2022/01/03 01:57:06;;;;;;;46.10;28.65;;;;;;;;;;5028567;28;20026;-55
2022/01/03 02:00:03;;;;;;;44.20;28.08;;;;;;;;;;5031712;28;20029;-54
2022/01/03 02:02:47;;;;;;;53.22;27.25;;;;;;;;;;5029015;28;20037;-55
2022/01/03 02:05:22;;;;;;;46.72;28.02;;;;;;;;;;5025119;28;20079;-54
2022/01/03 02:08:06;;;;;;;46.67;28.13;;;;;;;;;;5024675;28;20381;-55
2022/01/03 02:10:39;;;;;;;49.60;28.60;;;;;;;;;;5037108;28;20040;-55
2022/01/03 02:13:05;;;;;;;49.05;28.48;;;;;;;;;;5027850;28;20036;-55
2022/01/03 02:15:32;;;;;;;45.63;28.30;;;;;;;;;;5029128;28;20057;-53
2022/01/03 02:17:58;;;;;;;43.40;26.33;;;;;;;;;;5021680;28;20037;-55
2022/01/03 02:20:29;;;;;;;43.88;27.85;;;;;;;;;;5029045;28;20613;-52
2022/01/03 02:22:55;;;;;;;47.28;27.95;;;;;;;;;;5024680;28;20048;-49
2022/01/03 02:25:22;;;;;;;46.17;28.10;;;;;;;;;;5029620;28;20120;-48
2022/01/03 02:27:50;;;;;;;53.88;28.98;;;;;;;;;;5023616;28;20037;-47
2022/01/03 02:30:21;;;;;;;45.60;29.08;;;;;;;;;;5029107;28;20033;-49
2022/01/03 02:32:47;;;;;;;46.90;28.65;;;;;;;;;;5027643;28;20037;-50
2022/01/03 02:35:13;;;;;;;54.53;29.15;;;;;;;;;;5031104;28;20064;-49
2022/01/03 02:37:40;;;;;;;47.90;28.25;;;;;;;;;;5031400;28;20029;-47
2022/01/03 02:40:08;;;;;;;50.58;30.15;;;;;;;;;;5026121;28;20061;-47
2022/01/03 02:42:33;;;;;;;48.03;28.58;;;;;;;;;;5040424;28;20098;-47
2022/01/03 02:45:04;;;;;;;52.95;29.63;;;;;;;;;;5034954;28;20478;-53
2022/01/03 02:47:30;;;;;;;50.83;28.60;;;;;;;;;;5035835;28;20117;-50
2022/01/03 02:49:56;;;;;;;51.10;28.92;;;;;;;;;;5031799;28;20468;-47
2022/01/03 02:52:22;;;;;;;51.38;28.35;;;;;;;;;;5031133;28;20033;-48
2022/01/03 02:54:49;;;;;;;53.33;30.50;;;;;;;;;;5031497;28;20355;-47
2022/01/03 02:57:15;;;;;;;54.53;30.58;;;;;;;;;;5035670;28;20072;-50
2022/01/03 02:59:41;;;;;;;48.95;29.67;;;;;;;;;;5034865;28;20053;-50
2022/01/03 03:02:07;;;;;;;55.00;28.83;;;;;;;;;;5030656;28;20036;-47
2022/01/03 03:04:51;;;;;;;52.83;28.15;;;;;;;;;;5034460;28;20024;-49
2022/01/03 03:07:22;;;;;;;48.40;27.52;;;;;;;;;;5023472;28;20034;-48
2022/01/03 03:09:48;;;;;;;54.70;28.13;;;;;;;;;;5025417;28;20025;-50
2022/01/03 03:12:14;;;;;;;44.65;26.80;;;;;;;;;;5034848;28;20112;-47
2022/01/03 03:14:40;;;;;;;44.50;27.48;;;;;;;;;;5030749;28;20116;-47
2022/01/03 03:17:05;;;;;;;52.47;27.02;;;;;;;;;;5030581;28;20558;-48
2022/01/03 03:19:31;;;;;;;49.45;27.35;;;;;;;;;;5029252;28;20461;-49
2022/01/03 03:21:57;;;;;;;52.88;27.92;;;;;;;;;;5029481;28;20069;-47
2022/01/03 03:24:23;;;;;;;54.25;29.40;;;;;;;;;;5037526;28;20071;-49
2022/01/03 03:26:48;;;;;;;58.22;28.98;;;;;;;;;;5032388;28;20474;-49
2022/01/03 03:29:15;;;;;;;56.75;29.83;;;;;;;;;;5033977;28;20036;-47
2022/01/03 03:31:41;;;;;;;47.22;26.15;;;;;;;;;;5033637;28;20086;-47
2022/01/03 03:34:06;;;;;;;52.10;27.23;;;;;;;;;;5037637;28;20041;-50
2022/01/03 03:36:33;;;;;;;52.83;27.98;;;;;;;;;;5028047;28;20425;-48
2022/01/03 03:38:59;;;;;;;56.60;28.02;;;;;;;;;;5027605;28;20655;-47
2022/01/03 03:41:26;;;;;;;55.58;28.65;;;;;;;;;;5034729;28;20053;-52
2022/01/03 03:43:52;;;;;;;54.95;28.70;;;;;;;;;;5026557;28;20025;-50
2022/01/03 03:46:17;;;;;;;54.33;29.52;;;;;;;;;;5024586;28;20075;-47
2022/01/03 03:48:43;;;;;;;49.38;27.67;;;;;;;;;;5035877;28;20164;-50
2022/01/03 03:51:09;;;;;;;60.85;29.83;;;;;;;;;;5029995;28;20033;-48
2022/01/03 03:53:35;;;;;;;54.75;28.58;;;;;;;;;;5028716;28;20065;-47
2022/01/03 03:56:00;;;;;;;64.50;30.58;;;;;;;;;;5025639;28;20038;-47
2022/01/03 03:58:26;;;;;;;63.00;30.08;;;;;;;;;;5019819;28;20040;-54
2022/01/03 04:00:52;;;;;;;61.88;30.90;;;;;;;;;;5038819;28;20096;-50
2022/01/03 04:03:18;;;;;;;61.83;30.90;;;;;;;;;;5036941;28;20116;-53
2022/01/03 04:05:44;;;;;;;63.60;30.63;;;;;;;;;;5030940;28;20033;-50
2022/01/03 04:08:10;;;;;;;59.60;30.02;;;;;;;;;;5032373;28;20056;-47
2022/01/03 04:10:36;;;;;;;59.72;30.15;;;;;;;;;;5031384;28;20462;-51
2022/01/03 04:13:02;;;;;;;55.42;27.52;;;;;;;;;;5034955;28;20045;-52
2022/01/03 04:15:28;;;;;;;49.53;27.35;;;;;;;;;;5033675;28;20052;-54
2022/01/03 04:17:53;;;;;;;60.13;29.42;;;;;;;;;;5035918;28;20037;-48
2022/01/03 04:20:19;;;;;;;55.28;29.98;;;;;;;;;;5033432;28;20045;-47
2022/01/03 04:22:45;;;;;;;58.95;29.33;;;;;;;;;;5034727;28;20480;-49
2022/01/03 04:25:11;;;;;;;57.00;29.58;;;;;;;;;;5029511;28;20030;-50
2022/01/03 04:27:38;;;;;;;54.17;28.38;;;;;;;;;;5027351;28;20080;-47
2022/01/03 04:30:05;;;;;;;54.78;27.13;;;;;;;;;;5033327;28;20505;-48
2022/01/03 04:32:31;;;;;;;53.08;27.25;;;;;;;;;;5031197;28;20421;-48
2022/01/03 04:34:56;;;;;;;53.13;26.88;;;;;;;;;;5033249;28;20033;-47
2022/01/03 04:37:22;;;;;;;52.30;27.23;;;;;;;;;;5029956;28;20430;-50
2022/01/03 04:39:48;;;;;;;49.63;24.90;;;;;;;;;;5023316;28;20030;-50
2022/01/03 04:42:13;;;;;;;49.58;25.30;;;;;;;;;;5034174;28;20059;-50
2022/01/03 04:44:39;;;;;;;48.83;25.08;;;;;;;;;;5027422;28;20391;-48
2022/01/03 04:47:05;;;;;;;49.85;25.92;;;;;;;;;;5032932;28;20533;-47
2022/01/03 04:49:30;;;;;;;50.13;25.52;;;;;;;;;;5033863;28;20087;-48
2022/01/03 04:51:56;;;;;;;51.65;25.67;;;;;;;;;;5030803;28;20509;-50
2022/01/03 04:54:22;;;;;;;49.25;24.38;;;;;;;;;;5037747;28;20524;-49
2022/01/03 04:56:48;;;;;;;43.53;23.70;;;;;;;;;;5034770;28;20499;-55
2022/01/03 04:59:14;;;;;;;40.95;22.40;;;;;;;;;;5024845;28;20143;-48
2022/01/03 05:01:39;;;;;;;47.58;23.50;;;;;;;;;;5026120;28;20036;-47
2022/01/03 05:04:05;;;;;;;45.42;23.92;;;;;;;;;;5030964;28;20036;-46
2022/01/03 05:06:31;;;;;;;47.00;23.58;;;;;;;;;;5018980;28;20446;-50
2022/01/03 05:08:56;;;;;;;43.60;22.10;;;;;;;;;;5027749;28;20030;-52
2022/01/03 05:11:22;;;;;;;45.42;24.08;;;;;;;;;;5033811;28;20025;-49
2022/01/03 05:13:48;;;;;;;42.28;22.25;;;;;;;;;;5033565;28;20013;-50
2022/01/03 05:16:14;;;;;;;42.28;22.10;;;;;;;;;;5028476;28;20026;-47
2022/01/03 05:18:40;;;;;;;40.38;22.08;;;;;;;;;;5029660;28;20079;-47
2022/01/03 05:21:05;;;;;;;39.70;21.58;;;;;;;;;;5025230;28;20069;-47
2022/01/03 05:23:31;;;;;;;38.95;20.95;;;;;;;;;;5031011;28;20065;-50
2022/01/03 05:25:57;;;;;;;40.80;20.90;;;;;;;;;;5020481;28;20030;-49
2022/01/03 05:28:23;;;;;;;37.28;20.83;;;;;;;;;;5021931;28;20095;-51
2022/01/03 05:30:49;;;;;;;42.63;20.17;;;;;;;;;;5022532;28;20079;-48
2022/01/03 05:33:14;;;;;;;42.00;21.80;;;;;;;;;;5031046;28;20512;-52
2022/01/03 05:35:40;;;;;;;40.80;22.05;;;;;;;;;;5034873;28;20037;-53
2022/01/03 05:38:06;;;;;;;45.33;22.45;;;;;;;;;;5031445;28;20047;-48
2022/01/03 05:40:31;;;;;;;45.10;22.20;;;;;;;;;;5019886;28;20033;-47
2022/01/03 05:42:57;;;;;;;36.83;19.52;;;;;;;;;;5028865;28;20036;-48
2022/01/03 05:45:23;;;;;;;39.35;20.65;;;;;;;;;;5025003;28;20041;-50
2022/01/03 05:47:49;;;;;;;39.75;21.55;;;;;;;;;;5026577;28;20037;-46
2022/01/03 05:50:16;;;;;;;39.70;20.95;;;;;;;;;;5032269;28;20490;-51
2022/01/03 05:52:42;;;;;;;40.33;20.75;;;;;;;;;;5022506;28;20048;-49
2022/01/03 05:55:08;;;;;;;34.22;19.98;;;;;;;;;;5021259;28;20037;-54
2022/01/03 05:57:35;;;;;;;38.45;19.58;;;;;;;;;;5029562;28;20038;-50
2022/01/03 06:00:03;;;;;;;39.13;20.25;;;;;;;;;;5023977;28;20026;-48
2022/01/03 06:02:37;;;;;;;34.03;19.02;;;;;;;;;;5026243;28;20036;-49
2022/01/03 06:05:05;;;;;;;35.70;19.60;;;;;;;;;;5023249;28;20096;-55
2022/01/03 06:07:31;;;;;;;29.60;17.73;;;;;;;;;;5027461;28;20026;-56
2022/01/03 06:09:56;;;;;;;32.72;19.13;;;;;;;;;;5035236;28;20382;-55
2022/01/03 06:12:22;;;;;;;34.65;18.40;;;;;;;;;;5039758;28;20033;-55
2022/01/03 06:14:48;;;;;;;32.50;18.05;;;;;;;;;;5033173;28;20029;-47
2022/01/03 06:17:15;;;;;;;31.38;17.50;;;;;;;;;;5032780;28;20060;-47
2022/01/03 06:19:43;;;;;;;30.70;17.02;;;;;;;;;;5031767;28;20041;-53
2022/01/03 06:22:09;;;;;;;35.78;19.35;;;;;;;;;;5025022;28;20029;-54
2022/01/03 06:24:38;;;;;;;35.17;19.48;;;;;;;;;;5027101;28;20421;-53
2022/01/03 06:27:04;;;;;;;33.97;19.00;;;;;;;;;;5030472;28;20037;-57
2022/01/03 06:29:30;;;;;;;34.60;19.25;;;;;;;;;;5034103;28;20029;-48
2022/01/03 06:31:57;;;;;;;32.28;18.60;;;;;;;;;;5035830;28;20044;-49
2022/01/03 06:34:23;;;;;;;37.00;20.02;;;;;;;;;;5024158;28;20485;-53
2022/01/03 06:36:49;;;;;;;35.65;18.33;;;;;;;;;;5029771;28;20022;-49
2022/01/03 06:39:15;;;;;;;36.45;19.65;;;;;;;;;;5031693;28;20030;-47
2022/01/03 06:41:41;;;;;;;40.25;19.42;;;;;;;;;;5034400;28;20029;-49
2022/01/03 06:44:07;;;;;;;35.75;19.05;;;;;;;;;;5033857;28;20025;-56
2022/01/03 06:46:33;;;;;;;35.08;17.65;;;;;;;;;;5025946;28;20129;-51
2022/01/03 06:49:00;;;;;;;42.58;19.90;;;;;;;;;;5033162;28;20092;-51
2022/01/03 06:51:31;;;;;;;40.45;19.90;;;;;;;;;;5038991;28;20029;-53
2022/01/03 06:53:57;;;;;;;36.08;19.13;;;;;;;;;;5038572;28;20486;-50
2022/01/03 06:56:23;;;;;;;39.35;19.90;;;;;;;;;;5032814;28;20025;-53
2022/01/03 06:58:48;;;;;;;36.72;19.13;;;;;;;;;;5033702;28;20029;-50
2022/01/03 07:01:14;;;;;;;40.53;18.70;;;;;;;;;;5029916;28;20378;-54
2022/01/03 07:03:40;;;;;;;79.97;21.50;;;;;;;;;;5027996;28;20363;-49
2022/01/03 07:06:05;;;;;;;39.83;19.35;;;;;;;;;;5028362;28;20549;-53
2022/01/03 07:08:31;;;;;;;37.70;20.40;;;;;;;;;;5037974;28;20033;-55
2022/01/03 07:10:57;;;;;;;36.33;19.40;;;;;;;;;;5033576;28;20037;-48
2022/01/03 07:13:25;;;;;;;37.50;19.52;;;;;;;;;;5026576;28;20364;-54
2022/01/03 07:21:20;;;;;;;47.13;20.30;;;;;;;;;;5026327;28;20423;-50
2022/01/03 07:23:46;;;;;;;40.75;20.05;;;;;;;;;;5038988;28;20053;-53
2022/01/03 07:26:11;;;;;;;56.47;20.42;;;;;;;;;;5029244;28;20051;-56
2022/01/03 07:28:37;;;;;;;39.92;20.25;;;;;;;;;;5025201;28;20100;-54
2022/01/03 07:31:03;;;;;;;45.25;20.13;;;;;;;;;;5028457;28;20475;-52
2022/01/03 07:33:28;;;;;;;37.33;19.05;;;;;;;;;;5035686;28;20443;-51
2022/01/03 07:35:54;;;;;;;35.25;19.52;;;;;;;;;;5034881;28;20029;-53
2022/01/03 07:38:20;;;;;;;36.25;19.40;;;;;;;;;;5033145;28;20035;-56
2022/01/03 07:40:46;;;;;;;39.03;19.13;;;;;;;;;;5028113;28;20053;-56
2022/01/03 07:43:11;;;;;;;36.05;18.23;;;;;;;;;;5032637;28;20057;-54
2022/01/03 07:45:37;;;;;;;35.63;17.50;;;;;;;;;;5029688;28;20038;-56
2022/01/03 07:48:04;;;;;;;35.13;18.63;;;;;;;;;;5033713;28;20029;-52
2022/01/03 07:50:30;;;;;;;29.08;16.63;;;;;;;;;;5038217;28;20098;-52
2022/01/03 07:52:58;;;;;;;27.67;15.80;;;;;;;;;;5027885;28;20041;-52
2022/01/03 07:55:24;;;;;;;33.00;17.00;;;;;;;;;;5025224;28;20382;-54
2022/01/03 07:57:50;;;;;;;32.67;17.27;;;;;;;;;;5030285;28;20422;-52
2022/01/03 08:00:16;;;;;;;38.72;18.27;;;;;;;;;;5034461;28;20132;-55
2022/01/03 08:02:43;;;;;;;30.27;16.23;;;;;;;;;;5031193;28;20026;-52
2022/01/03 08:05:12;;;;;;;29.80;16.63;;;;;;;;;;5034232;28;20029;-57
2022/01/03 08:07:38;;;;;;;29.70;16.52;;;;;;;;;;5027201;28;20033;-54
2022/01/03 08:10:06;;;;;;;29.90;15.80;;;;;;;;;;5028532;28;20041;-56
2022/01/03 08:12:32;;;;;;;27.35;16.02;;;;;;;;;;5037689;28;20033;-55
2022/01/03 08:14:58;;;;;;;32.95;17.23;;;;;;;;;;5029311;28;20037;-57
2022/01/03 08:17:25;;;;;;;25.92;15.55;;;;;;;;;;5029577;28;20036;-53
2022/01/03 08:19:51;;;;;;;33.47;16.85;;;;;;;;;;5031573;28;20057;-56
2022/01/03 08:22:17;;;;;;;32.83;18.58;;;;;;;;;;5034422;28;20041;-56
2022/01/03 08:24:44;;;;;;;28.50;15.38;;;;;;;;;;5031334;28;20045;-54
2022/01/03 08:27:09;;;;;;;25.20;14.30;;;;;;;;;;5037561;28;20151;-56
2022/01/03 08:29:35;;;;;;;27.90;15.57;;;;;;;;;;5036722;28;20076;-56
2022/01/03 08:32:01;;;;;;;25.27;14.32;;;;;;;;;;5030905;28;20034;-56
2022/01/03 08:34:27;;;;;;;27.27;14.57;;;;;;;;;;5040630;28;20064;-51
2022/01/03 08:36:53;;;;;;;22.73;13.65;;;;;;;;;;5031560;28;20072;-53
2022/01/03 08:39:18;;;;;;;28.10;14.65;;;;;;;;;;5030997;28;20051;-50
2022/01/03 08:41:44;;;;;;;25.25;14.63;;;;;;;;;;5034544;28;20045;-56
2022/01/03 08:44:10;;;;;;;24.05;14.50;;;;;;;;;;5034885;28;20032;-57
2022/01/03 08:46:36;;;;;;;27.55;14.82;;;;;;;;;;5030794;28;20547;-53
2022/01/03 08:49:02;;;;;;;24.92;13.77;;;;;;;;;;5030741;28;20034;-57
2022/01/03 08:51:28;;;;;;;22.13;13.75;;;;;;;;;;5024483;28;20113;-57
2022/01/03 08:53:54;;;;;;;24.05;13.80;;;;;;;;;;5029784;28;20124;-57
2022/01/03 08:56:21;;;;;;;27.50;15.60;;;;;;;;;;5022593;28;20029;-56
2022/01/03 08:58:47;;;;;;;20.48;14.05;;;;;;;;;;5033450;28;20025;-56
2022/01/03 09:01:13;;;;;;;25.85;15.18;;;;;;;;;;5030242;28;20098;-54
2022/01/03 09:03:38;;;;;;;27.75;15.32;;;;;;;;;;5036787;28;20471;-51
2022/01/03 09:06:04;;;;;;;27.00;15.18;;;;;;;;;;5033024;28;20029;-56
2022/01/03 09:08:30;;;;;;;25.10;14.52;;;;;;;;;;5026535;28;20460;-56
2022/01/03 09:10:56;;;;;;;25.63;14.80;;;;;;;;;;5033394;28;20124;-56
2022/01/03 09:13:22;;;;;;;24.98;15.18;;;;;;;;;;5023871;28;20052;-54
2022/01/03 09:15:48;;;;;;;27.48;15.02;;;;;;;;;;5021636;28;20025;-57
2022/01/03 09:18:17;;;;;;;25.30;14.57;;;;;;;;;;5030501;28;20049;-56
2022/01/03 09:20:43;;;;;;;23.85;13.60;;;;;;;;;;5033405;28;20127;-56
2022/01/03 09:23:24;;;;;;;26.23;14.77;;;;;;;;;;5034102;28;20490;-55
2022/01/03 09:28:55;;;;;;;23.77;14.60;;;;;;;;;;5025355;28;20029;-56
2022/01/03 09:31:37;;;;;;;25.15;14.27;;;;;;;;;;5031958;28;20029;-56
2022/01/03 09:34:05;;;;;;;21.75;13.80;;;;;;;;;;5019804;28;20100;-50
2022/01/03 09:36:32;;;;;;;24.45;14.15;;;;;;;;;;5017327;28;20045;-50
2022/01/03 09:38:59;;;;;;;20.80;13.43;;;;;;;;;;5048198;28;20845;-48
2022/01/03 09:41:27;;;;;;;27.92;16.52;;;;;;;;;;5028456;28;20112;-52
2022/01/03 09:43:55;;;;;;;20.42;13.23;;;;;;;;;;5029997;28;20044;-51
2022/01/03 09:46:26;;;;;;;28.60;13.52;;;;;;;;;;5024252;28;20066;-53
2022/01/03 09:48:53;;;;;;;20.55;13.00;;;;;;;;;;5030116;28;20390;-48
2022/01/03 09:51:22;;;;;;;26.30;13.27;;;;;;;;;;5028657;28;20030;-51
2022/01/03 09:53:49;;;;;;;18.08;12.20;;;;;;;;;;5034688;28;20037;-50
2022/01/03 09:56:16;;;;;;;23.20;13.20;;;;;;;;;;5032107;28;20080;-49
2022/01/03 09:58:42;;;;;;;22.90;12.15;;;;;;;;;;5028884;28;20083;-50
2022/01/03 10:01:10;;;;;;;23.92;13.43;;;;;;;;;;5027819;28;20069;-54
2022/01/03 10:03:36;;;;;;;21.40;12.70;;;;;;;;;;5027116;28;20068;-49
2022/01/03 10:06:01;;;;;;;22.63;12.65;;;;;;;;;;5031967;28;20454;-50
2022/01/03 10:08:28;;;;;;;20.15;13.38;;;;;;;;;;5034893;28;20795;-48
2022/01/03 10:10:54;;;;;;;21.50;12.55;;;;;;;;;;5031280;28;20034;-53
2022/01/03 10:13:20;;;;;;;18.65;11.98;;;;;;;;;;5025739;28;20156;-50
2022/01/03 10:15:47;;;;;;;18.75;11.75;;;;;;;;;;5022836;28;20038;-52
2022/01/03 10:18:22;;;;;;;16.45;11.98;;;;;;;;;;5031567;28;20510;-48
2022/01/03 10:20:48;;;;;;;19.73;12.50;;;;;;;;;;5025842;28;20506;-51
2022/01/03 10:23:16;;;;;;;18.23;11.98;;;;;;;;;;5025706;28;20025;-51
2022/01/03 10:25:42;;;;;;;14.80;11.55;;;;;;;;;;5024316;28;20470;-51
2022/01/03 10:28:08;;;;;;;15.05;10.85;;;;;;;;;;5030190;28;20056;-51
2022/01/03 10:30:41;;;;;;;19.35;11.63;;;;;;;;;;5032504;28;20053;-49
2022/01/03 10:33:10;;;;;;;21.77;12.25;;;;;;;;;;5030973;28;20502;-53
2022/01/03 10:35:41;;;;;;;17.27;10.13;;;;;;;;;;5023138;28;20025;-48
2022/01/03 10:38:09;;;;;;;17.60;10.48;;;;;;;;;;5030650;28;20049;-50
2022/01/03 10:40:36;;;;;;;17.23;10.98;;;;;;;;;;5029225;28;20043;-50
2022/01/03 10:43:19;;;;;;;14.98;10.52;;;;;;;;;;5031392;28;20052;-48
2022/01/03 10:45:47;;;;;;;19.27;10.90;;;;;;;;;;5025427;28;20064;-50
2022/01/03 10:48:33;;;;;;;13.23;10.35;;;;;;;;;;5034335;28;20355;-50
2022/01/03 10:51:01;;;;;;;12.05;9.57;;;;;;;;;;5029856;28;20095;-51
2022/01/03 10:53:37;;;;;;;12.23;9.73;;;;;;;;;;5025689;28;20029;-50
2022/01/03 10:56:23;;;;;;;16.60;9.40;;;;;;;;;;5022022;28;20045;-51
2022/01/03 10:58:50;;;;;;;16.38;9.32;;;;;;;;;;5029007;28;20645;-51
2022/01/03 11:01:24;;;;;;;31.70;18.63;;;;;;;;;;5031541;28;20041;-48
2022/01/03 11:03:50;;;;;;;41.80;22.90;;;;;;;;;;5029526;28;20483;-48
2022/01/03 11:12:16;;;;;;;50.10;27.30;;;;;;;;;;5024866;28;20057;-51
2022/01/03 11:14:42;;;;;;;50.83;25.67;;;;;;;;;;5029801;28;20029;-54
2022/01/03 11:17:22;;;;;;;52.45;26.10;;;;;;;;;;5030623;28;20108;-51
2022/01/03 11:19:48;;;;;;;46.53;24.77;;;;;;;;;;5028885;28;20045;-48
2022/01/03 11:22:41;;;;;;;55.30;28.15;;;;;;;;;;5033197;28;20025;-54
2022/01/03 11:25:07;;;;;;;55.20;26.15;;;;;;;;;;5028435;28;20029;-51
2022/01/03 11:27:38;;;;;;;52.65;27.15;;;;;;;;;;5033245;28;20033;-48
2022/01/03 11:30:06;;;;;;;61.55;29.42;;;;;;;;;;5035534;28;20115;-52
2022/01/03 11:32:34;;;;;;;50.15;28.63;;;;;;;;;;5030572;28;20028;-47
2022/01/03 11:35:00;;;;;;;53.75;29.20;;;;;;;;;;5034189;28;20033;-49
2022/01/03 11:37:32;;;;;;;50.00;27.33;;;;;;;;;;5031305;28;20027;-49
2022/01/03 11:40:01;;;;;;;47.13;26.58;;;;;;;;;;5035809;28;20033;-50
2022/01/03 11:42:30;;;;;;;43.95;23.85;;;;;;;;;;5047042;28;20471;-50
2022/01/03 11:44:56;;;;;;;39.83;22.08;;;;;;;;;;5031162;28;20033;-48
2022/01/03 11:47:22;;;;;;;41.90;23.60;;;;;;;;;;5028084;28;20041;-50
2022/01/03 11:49:48;;;;;;;43.85;22.50;;;;;;;;;;5030516;28;20401;-51
2022/01/03 11:52:15;;;;;;;44.70;24.67;;;;;;;;;;5030564;28;20029;-53
2022/01/03 11:54:42;;;;;;;53.53;27.60;;;;;;;;;;5025186;28;20084;-51
2022/01/03 11:57:14;;;;;;;44.30;24.38;;;;;;;;;;5033410;28;20021;-51
2022/01/03 12:05:51;;;;;;;46.20;25.70;;;;;;;;;;5031377;28;20056;-51
2022/01/03 12:08:25;;;;;;;41.55;21.80;;;;;;;;;;5027885;28;20028;-52
2022/01/03 12:10:52;;;;;;;38.72;22.75;;;;;;;;;;5025589;28;20501;-48
2022/01/03 12:13:20;;;;;;;36.97;21.65;;;;;;;;;;5020911;28;20108;-56
2022/01/03 12:15:46;;;;;;;35.47;20.92;;;;;;;;;;5032710;28;20041;-48
2022/01/03 12:18:32;;;;;;;36.13;20.92;;;;;;;;;;5029785;28;20390;-56
2022/01/03 12:20:58;;;;;;;37.08;20.75;;;;;;;;;;5032803;28;20052;-48
2022/01/03 12:23:44;;;;;;;36.50;20.45;;;;;;;;;;5029889;28;20099;-51
2022/01/03 12:26:19;;;;;;;31.58;19.70;;;;;;;;;;5026439;28;20120;-53
2022/01/03 12:29:02;;;;;;;31.05;19.58;;;;;;;;;;5033127;28;20033;-56
2022/01/03 12:32:08;;;;;;;34.03;18.45;;;;;;;;;;5023235;28;20111;-48
2022/01/03 12:34:34;;;;;;;34.05;19.55;;;;;;;;;;5026946;28;20033;-51
2022/01/03 12:37:21;;;;;;;31.75;19.17;;;;;;;;;;5036039;28;20040;-54
2022/01/03 12:40:05;;;;;;;31.65;18.75;;;;;;;;;;5023577;28;20120;-54
2022/01/03 12:42:52;;;;;;;34.85;20.65;;;;;;;;;;5034533;28;20386;-51
2022/01/03 12:45:32;;;;;;;34.90;19.55;;;;;;;;;;5027008;28;20116;-50
2022/01/03 12:48:11;;;;;;;35.03;19.10;;;;;;;;;;5031734;28;20537;-51
2022/01/03 12:50:41;;;;;;;29.65;18.98;;;;;;;;;;5033545;28;20017;-53
2022/01/03 12:53:09;;;;;;;29.38;18.25;;;;;;;;;;5032080;28;20386;-55
2022/01/03 12:55:37;;;;;;;26.48;17.73;;;;;;;;;;5028783;28;20029;-52
2022/01/03 12:58:16;;;;;;;32.20;20.08;;;;;;;;;;5030322;28;20033;-51
2022/01/03 13:00:45;;;;;;;27.02;18.95;;;;;;;;;;5028173;28;20034;-52
2022/01/03 13:03:22;;;;;;;34.35;20.35;;;;;;;;;;5028113;28;20490;-49
2022/01/03 13:06:10;;;;;;;34.33;17.35;;;;;;;;;;5032512;28;20044;-48
2022/01/03 13:08:41;;;;;;;30.98;18.27;;;;;;;;;;5028637;28;20033;-49
2022/01/03 13:11:09;;;;;;;32.33;17.88;;;;;;;;;;5030612;28;20072;-53
2022/01/03 13:13:36;;;;;;;27.85;17.13;;;;;;;;;;5025859;28;20033;-50
2022/01/03 13:16:18;;;;;;;30.80;18.88;;;;;;;;;;5022791;28;20041;-52
2022/01/03 13:18:56;;;;;;;28.85;18.75;;;;;;;;;;5033224;28;20099;-51
2022/01/03 13:21:24;;;;;;;27.35;18.67;;;;;;;;;;5025984;28;20030;-51
2022/01/03 13:24:02;;;;;;;26.10;17.27;;;;;;;;;;5026351;28;20121;-50
2022/01/03 13:26:31;;;;;;;28.15;17.38;;;;;;;;;;5034964;28;20381;-51
2022/01/03 13:29:00;;;;;;;31.67;18.10;;;;;;;;;;5026240;28;20037;-49
2022/01/03 13:31:27;;;;;;;28.98;17.33;;;;;;;;;;5028562;28;20124;-53
2022/01/03 13:34:02;;;;;;;31.70;18.48;;;;;;;;;;5028193;28;20034;-48
2022/01/03 13:36:40;;;;;;;28.13;17.90;;;;;;;;;;5026508;28;20025;-47
2022/01/03 13:39:12;;;;;;;26.80;16.80;;;;;;;;;;5033615;28;20099;-47
2022/01/03 13:41:40;;;;;;;31.02;17.08;;;;;;;;;;5032374;28;20169;-50
2022/01/03 13:44:08;;;;;;;31.67;18.00;;;;;;;;;;5028791;28;20037;-54
2022/01/03 13:49:23;;;;;;;36.97;21.08;;;;;;;;;;5020307;28;20044;-49
2022/01/03 13:51:50;;;;;;;27.13;18.70;;;;;;;;;;5026314;28;20026;-50
2022/01/03 13:54:30;;;;;;;38.63;19.13;;;;;;;;;;5029986;28;20064;-51
2022/01/03 13:56:58;;;;;;;30.58;18.23;;;;;;;;;;5027636;28;20033;-53
2022/01/03 13:59:27;;;;;;;29.95;18.75;;;;;;;;;;5031756;28;20113;-49
2022/01/03 14:01:53;;;;;;;32.47;21.17;;;;;;;;;;5026839;28;20029;-52
2022/01/03 14:04:19;;;;;;;34.95;21.08;;;;;;;;;;5023886;28;20155;-52
2022/01/03 14:06:46;;;;;;;32.90;21.02;;;;;;;;;;5018812;28;20038;-49
2022/01/03 14:09:17;;;;;;;31.08;20.63;;;;;;;;;;5033581;28;20088;-51
2022/01/03 14:11:43;;;;;;;38.63;22.33;;;;;;;;;;5024675;28;20112;-51
2022/01/03 14:14:11;;;;;;;35.22;20.13;;;;;;;;;;5024078;28;20033;-49
2022/01/03 14:16:59;;;;;;;31.77;21.00;;;;;;;;;;5029611;28;20099;-48
2022/01/03 14:19:27;;;;;;;37.53;20.50;;;;;;;;;;5028047;28;20045;-50
2022/01/03 14:21:53;;;;;;;35.15;21.35;;;;;;;;;;5029711;28;20029;-48
2022/01/03 14:24:23;;;;;;;30.45;19.10;;;;;;;;;;5027395;28;20725;-48
2022/01/03 14:26:58;;;;;;;35.90;21.08;;;;;;;;;;5029581;28;20554;-49
2022/01/03 14:29:33;;;;;;;44.75;23.77;;;;;;;;;;5027394;28;20042;-49
2022/01/03 14:32:09;;;;;;;33.63;22.40;;;;;;;;;;5030746;28;20083;-48
2022/01/03 14:34:36;;;;;;;32.55;21.05;;;;;;;;;;5037010;28;20052;-49
2022/01/03 14:37:03;;;;;;;30.02;19.50;;;;;;;;;;5032678;28;23230;-51
2022/01/03 14:39:30;;;;;;;34.72;20.20;;;;;;;;;;5031938;28;20479;-50
2022/01/03 14:42:01;;;;;;;31.88;19.02;;;;;;;;;;5035638;28;20624;-47
2022/01/03 14:44:30;;;;;;;31.52;20.77;;;;;;;;;;5038057;28;20031;-49
2022/01/03 14:47:06;;;;;;;35.83;21.52;;;;;;;;;;5035352;28;20036;-49
2022/01/03 14:49:32;;;;;;;34.17;21.85;;;;;;;;;;5034697;28;20048;-51